createdAt,value
2018-12-31T00:00:33.069Z,9.40
2018-12-31T00:03:38.349Z,12.07
2018-12-31T00:06:43.755Z,8.53
2018-12-31T00:09:49.080Z,11.47
2018-12-31T00:12:54.544Z,12.10
2018-12-31T00:15:59.831Z,10.43
2018-12-31T00:19:05.236Z,15.90
2018-12-31T00:22:10.513Z,17.13
2018-12-31T00:25:15.922Z,14.90
2018-12-31T00:28:21.358Z,37.63
2018-12-31T00:31:26.825Z,15.40
2018-12-31T00:34:32.105Z,13.43
2018-12-31T00:37:37.612Z,13.30
2018-12-31T00:40:42.884Z,9.60
2018-12-31T00:43:48.303Z,8.13
2018-12-31T00:46:53.583Z,8.40
2018-12-31T00:49:58.987Z,7.27
2018-12-31T00:53:04.375Z,6.27
2018-12-31T00:56:09.886Z,6.23
2018-12-31T00:59:15.157Z,5.83
2018-12-31T01:02:20.572Z,6.40
2018-12-31T01:05:25.846Z,5.40
2018-12-31T01:08:31.364Z,5.03
2018-12-31T01:11:36.631Z,6.63
2018-12-31T01:14:42.051Z,6.73
2018-12-31T01:17:47.333Z,6.93
2018-12-31T01:20:52.757Z,6.90
2018-12-31T01:23:58.019Z,5.80
2018-12-31T01:27:03.445Z,7.30
2018-12-31T01:30:09.331Z,6.20
2018-12-31T01:33:14.740Z,7.20
2018-12-31T01:36:20.012Z,7.47
2018-12-31T01:39:25.428Z,8.53
2018-12-31T01:42:30.705Z,9.30
2018-12-31T01:45:36.204Z,11.77
2018-12-31T01:48:41.483Z,10.07
2018-12-31T01:51:47.013Z,11.20
2018-12-31T01:54:53.110Z,9.67
2018-12-31T01:57:58.522Z,9.57
2018-12-31T02:01:03.792Z,9.50
2018-12-31T02:04:09.209Z,7.87
2018-12-31T02:07:14.477Z,8.40
2018-12-31T02:10:19.903Z,9.97
2018-12-31T02:13:25.221Z,9.47
2018-12-31T02:16:30.584Z,7.67
2018-12-31T02:19:35.855Z,9.53
2018-12-31T02:22:41.275Z,8.23
2018-12-31T02:25:46.557Z,6.97
2018-12-31T02:28:52.324Z,9.83
2018-12-31T02:31:57.738Z,9.57
2018-12-31T02:35:03.374Z,9.43
2018-12-31T02:38:08.645Z,9.70
2018-12-31T02:41:14.066Z,11.13
2018-12-31T02:44:19.335Z,8.87
2018-12-31T02:47:24.749Z,8.33
2018-12-31T02:50:30.084Z,7.83
2018-12-31T02:53:35.542Z,8.80
2018-12-31T02:56:40.923Z,8.17
2018-12-31T02:59:46.652Z,8.50
2018-12-31T03:02:51.922Z,8.40
2018-12-31T03:05:57.333Z,7.67
2018-12-31T03:09:02.606Z,8.43
2018-12-31T03:12:08.019Z,8.97
2018-12-31T03:15:13.345Z,9.57
2018-12-31T03:18:18.815Z,9.43
2018-12-31T03:21:24.086Z,9.83
2018-12-31T03:24:29.603Z,9.00
2018-12-31T03:27:34.868Z,9.07
2018-12-31T03:30:40.251Z,8.60
2018-12-31T03:33:45.527Z,10.07
2018-12-31T03:36:51.190Z,9.30
2018-12-31T03:39:56.473Z,11.00
2018-12-31T03:43:02.284Z,10.17
2018-12-31T03:46:07.560Z,9.17
2018-12-31T03:49:12.978Z,9.00
2018-12-31T03:52:18.508Z,8.53
2018-12-31T03:55:23.887Z,8.93
2018-12-31T03:58:29.295Z,8.53
2018-12-31T04:01:34.648Z,10.97
2018-12-31T04:04:39.958Z,9.40
2018-12-31T04:07:52.767Z,8.33
2018-12-31T04:10:52.318Z,9.80
2018-12-31T04:13:57.781Z,10.40
2018-12-31T04:17:03.056Z,10.43
2018-12-31T04:20:08.467Z,11.43
2018-12-31T04:23:13.747Z,10.27
2018-12-31T04:26:19.166Z,9.10
2018-12-31T04:29:24.448Z,10.00
2018-12-31T04:32:30.161Z,9.23
2018-12-31T04:35:35.429Z,9.90
2018-12-31T04:38:40.847Z,9.87
2018-12-31T04:41:46.150Z,9.20
2018-12-31T04:44:51.540Z,8.50
2018-12-31T04:47:56.807Z,7.83
2018-12-31T04:51:02.225Z,8.87
2018-12-31T04:54:07.496Z,7.97
2018-12-31T04:57:12.911Z,7.13
2018-12-31T05:00:18.191Z,7.87
2018-12-31T05:03:23.604Z,7.23
2018-12-31T05:06:28.878Z,8.80
2018-12-31T05:09:34.393Z,8.37
2018-12-31T05:12:39.658Z,8.87
2018-12-31T05:15:45.090Z,9.13
2018-12-31T05:18:50.351Z,8.57
2018-12-31T05:21:55.716Z,8.77
2018-12-31T05:25:00.990Z,7.83
2018-12-31T05:28:06.358Z,8.17
2018-12-31T05:31:11.645Z,9.13
2018-12-31T05:34:17.048Z,8.83
2018-12-31T05:37:22.323Z,8.40
2018-12-31T05:40:27.676Z,8.10
2018-12-31T05:43:32.942Z,9.63
2018-12-31T05:46:38.330Z,7.90
2018-12-31T05:49:43.601Z,6.97
2018-12-31T05:52:48.957Z,7.00
2018-12-31T05:55:54.228Z,8.73
2018-12-31T05:58:59.599Z,8.00
2018-12-31T06:02:04.979Z,9.27
2018-12-31T06:05:10.599Z,9.03
2018-12-31T06:08:15.872Z,10.40
2018-12-31T06:11:21.266Z,11.03
2018-12-31T06:14:26.540Z,12.27
2018-12-31T06:17:31.903Z,12.23
2018-12-31T06:20:37.174Z,9.10
2018-12-31T06:23:42.564Z,11.80
2018-12-31T06:26:47.841Z,12.03
2018-12-31T06:29:53.253Z,11.67
2018-12-31T06:32:58.578Z,11.73
2018-12-31T06:36:03.936Z,12.33
2018-12-31T06:39:09.377Z,12.30
2018-12-31T06:42:14.834Z,12.70
2018-12-31T06:45:20.107Z,13.10
2018-12-31T06:48:25.468Z,12.90
2018-12-31T06:51:30.735Z,9.87
2018-12-31T06:54:36.089Z,14.10
2018-12-31T06:57:41.368Z,11.73
2018-12-31T07:00:46.865Z,11.80
2018-12-31T07:03:53.003Z,14.27
2018-12-31T07:06:58.517Z,13.77
2018-12-31T07:10:04.381Z,15.57
2018-12-31T07:13:09.717Z,16.90
2018-12-31T07:16:15.077Z,16.33
2018-12-31T07:19:20.508Z,17.67
2018-12-31T07:22:25.876Z,16.37
2018-12-31T07:25:31.301Z,17.30
2018-12-31T07:28:36.577Z,16.97
2018-12-31T07:31:41.947Z,15.73
2018-12-31T07:34:47.208Z,14.73
2018-12-31T07:37:52.676Z,15.07
2018-12-31T07:40:57.953Z,13.33
2018-12-31T07:44:03.370Z,15.13
2018-12-31T07:47:08.643Z,17.27
2018-12-31T07:50:14.056Z,16.27
2018-12-31T07:53:19.339Z,16.20
2018-12-31T07:56:24.757Z,14.73
2018-12-31T07:59:30.171Z,17.00
2018-12-31T08:02:35.642Z,13.53
2018-12-31T08:05:41.018Z,12.53
2018-12-31T08:08:46.431Z,13.67
2018-12-31T08:11:51.710Z,12.40
2018-12-31T08:14:57.121Z,12.50
2018-12-31T08:18:02.403Z,14.50
2018-12-31T08:21:07.914Z,14.53
2018-12-31T08:24:13.189Z,16.47
2018-12-31T08:27:18.599Z,13.07
2018-12-31T08:30:23.878Z,15.10
2018-12-31T08:33:29.292Z,14.87
2018-12-31T08:36:34.571Z,19.93
2018-12-31T08:39:39.982Z,15.70
2018-12-31T08:42:45.300Z,14.73
2018-12-31T08:45:50.770Z,12.97
2018-12-31T08:48:56.049Z,17.27
2018-12-31T08:52:01.561Z,18.83
2018-12-31T08:55:06.845Z,15.80
2018-12-31T08:58:12.206Z,22.13
2018-12-31T09:01:17.486Z,18.30
2018-12-31T09:04:22.941Z,22.33
2018-12-31T09:07:28.523Z,20.07
2018-12-31T09:10:34.246Z,19.30
2018-12-31T09:13:39.535Z,20.77
2018-12-31T09:16:44.935Z,16.77
2018-12-31T09:19:50.218Z,17.43
2018-12-31T09:22:55.624Z,20.93
2018-12-31T09:26:00.900Z,23.30
2018-12-31T09:29:06.322Z,22.80
2018-12-31T09:32:11.595Z,23.87
2018-12-31T09:35:17.003Z,21.80
2018-12-31T09:38:22.280Z,23.30
2018-12-31T09:41:27.699Z,23.07
2018-12-31T09:44:33.206Z,20.57
2018-12-31T09:47:38.566Z,22.67
2018-12-31T09:50:43.841Z,19.10
2018-12-31T09:53:49.276Z,18.00
2018-12-31T09:56:54.554Z,17.80
2018-12-31T10:00:00.087Z,18.07
2018-12-31T10:03:05.425Z,17.07
2018-12-31T10:06:10.869Z,14.83
2018-12-31T10:09:17.005Z,18.27
2018-12-31T10:12:22.469Z,17.83
2018-12-31T10:15:27.813Z,16.97
2018-12-31T10:18:33.263Z,19.70
2018-12-31T10:21:41.077Z,20.03
2018-12-31T10:24:45.898Z,17.17
2018-12-31T10:27:51.171Z,16.17
2018-12-31T10:30:56.926Z,16.90
2018-12-31T10:34:02.206Z,16.60
2018-12-31T10:37:07.693Z,17.93
2018-12-31T10:40:12.962Z,20.37
2018-12-31T10:43:18.517Z,19.00
2018-12-31T10:46:23.793Z,20.30
2018-12-31T10:49:29.166Z,18.27
2018-12-31T10:52:34.768Z,19.33
2018-12-31T10:55:40.174Z,15.70
2018-12-31T10:58:45.446Z,16.63
2018-12-31T11:01:50.852Z,15.80
2018-12-31T11:04:56.240Z,15.30
2018-12-31T11:08:01.648Z,14.50
2018-12-31T11:11:07.761Z,15.80
2018-12-31T11:14:13.153Z,15.93
2018-12-31T11:17:18.441Z,13.67
2018-12-31T11:20:23.844Z,12.47
2018-12-31T11:23:29.124Z,14.07
2018-12-31T11:26:34.534Z,15.50
2018-12-31T11:29:39.912Z,16.87
2018-12-31T11:32:45.327Z,13.97
2018-12-31T11:35:50.598Z,14.00
2018-12-31T11:38:56.047Z,14.87
2018-12-31T11:42:01.532Z,15.70
2018-12-31T11:45:07.401Z,16.67
2018-12-31T11:48:12.692Z,11.87
2018-12-31T11:51:18.311Z,12.53
2018-12-31T11:54:23.597Z,14.83
2018-12-31T11:57:31.873Z,16.00
2018-12-31T12:00:37.224Z,14.00
2018-12-31T12:03:42.925Z,14.97
2018-12-31T12:06:48.196Z,15.30
2018-12-31T12:09:53.657Z,14.07
2018-12-31T12:12:59.389Z,14.47
2018-12-31T12:16:04.861Z,13.87
2018-12-31T12:19:10.142Z,16.37
2018-12-31T12:22:15.550Z,15.50
2018-12-31T12:25:21.405Z,15.30
2018-12-31T12:28:26.852Z,14.37
2018-12-31T12:31:32.131Z,14.63
2018-12-31T12:34:37.550Z,12.97
2018-12-31T12:37:48.439Z,13.03
2018-12-31T12:40:50.074Z,14.53
2018-12-31T12:43:55.356Z,13.97
2018-12-31T12:47:00.874Z,14.23
2018-12-31T12:50:06.799Z,13.43
2018-12-31T12:53:12.167Z,15.73
2018-12-31T12:56:17.461Z,15.23
2018-12-31T12:59:22.863Z,15.07
2018-12-31T13:02:28.211Z,18.17
2018-12-31T13:05:33.754Z,19.53
2018-12-31T13:08:39.136Z,26.27
2018-12-31T13:11:44.548Z,25.00
2018-12-31T13:14:50.636Z,25.90
2018-12-31T13:17:56.052Z,21.57
2018-12-31T13:21:01.328Z,22.57
2018-12-31T13:24:06.911Z,34.87
2018-12-31T13:27:12.180Z,20.80
2018-12-31T13:30:17.636Z,28.93
2018-12-31T13:33:22.918Z,21.87
2018-12-31T13:36:30.577Z,22.90
2018-12-31T13:39:35.896Z,27.37
2018-12-31T13:42:41.368Z,29.50
2018-12-31T13:45:46.649Z,30.10
2018-12-31T13:48:52.575Z,24.60
2018-12-31T13:51:58.177Z,26.40
2018-12-31T13:55:03.568Z,25.43
2018-12-31T13:58:09.953Z,21.13
2018-12-31T14:01:15.584Z,25.90
2018-12-31T14:04:20.936Z,28.37
2018-12-31T14:07:27.099Z,32.63
2018-12-31T14:10:32.379Z,32.07
2018-12-31T14:13:38.097Z,33.83
2018-12-31T14:16:44.321Z,45.17
2018-12-31T14:19:49.704Z,52.57
2018-12-31T14:22:55.642Z,33.30
2018-12-31T14:26:01.284Z,29.70
2018-12-31T14:29:06.567Z,26.47
2018-12-31T14:32:12.109Z,33.83
2018-12-31T14:35:17.454Z,43.57
2018-12-31T14:38:22.814Z,27.43
2018-12-31T14:41:28.154Z,24.67
2018-12-31T14:44:33.585Z,25.70
2018-12-31T14:47:39.132Z,26.03
2018-12-31T14:50:44.591Z,26.13
2018-12-31T14:53:49.871Z,24.33
2018-12-31T14:56:55.277Z,24.30
2018-12-31T15:00:00.554Z,23.27
2018-12-31T15:03:06.097Z,27.87
2018-12-31T15:06:11.380Z,24.83
2018-12-31T15:09:17.016Z,25.50
2018-12-31T15:12:22.559Z,24.67
2018-12-31T15:15:27.958Z,24.27
2018-12-31T15:18:34.916Z,24.80
2018-12-31T15:21:40.491Z,25.23
2018-12-31T15:24:46.226Z,26.73
2018-12-31T15:27:53.743Z,26.43
2018-12-31T15:30:59.025Z,27.97
2018-12-31T15:34:04.428Z,27.27
2018-12-31T15:37:10.092Z,28.07
2018-12-31T15:40:15.527Z,31.20
2018-12-31T15:43:20.801Z,28.77
2018-12-31T15:46:26.319Z,29.93
2018-12-31T15:49:31.593Z,29.57
2018-12-31T15:52:37.031Z,108.27
2018-12-31T15:55:42.817Z,43.30
2018-12-31T15:58:48.196Z,38.03
2018-12-31T16:01:53.472Z,42.60
2018-12-31T16:04:58.897Z,41.23
2018-12-31T16:08:04.186Z,107.37
2018-12-31T16:11:09.698Z,30.03
2018-12-31T16:14:15.008Z,33.03
2018-12-31T16:17:20.483Z,44.37
2018-12-31T16:20:25.908Z,41.40
2018-12-31T16:23:33.735Z,33.97
2018-12-31T16:26:39.016Z,36.50
2018-12-31T16:29:44.448Z,36.17
2018-12-31T16:32:49.721Z,36.27
2018-12-31T16:35:55.829Z,47.57
2018-12-31T16:39:01.149Z,46.00
2018-12-31T16:42:06.619Z,45.53
2018-12-31T16:45:11.904Z,46.60
2018-12-31T16:48:17.307Z,41.13
2018-12-31T16:51:22.592Z,44.60
2018-12-31T16:54:27.994Z,46.90
2018-12-31T16:57:33.277Z,39.10
2018-12-31T17:00:38.689Z,42.27
2018-12-31T17:03:43.970Z,38.93
2018-12-31T17:06:49.374Z,50.17
2018-12-31T17:09:54.661Z,54.40
2018-12-31T17:13:00.030Z,46.80
2018-12-31T17:16:05.304Z,44.17
2018-12-31T17:19:10.753Z,46.27
2018-12-31T17:22:16.132Z,54.00
2018-12-31T17:25:21.908Z,36.10
2018-12-31T17:28:27.453Z,80.30
2018-12-31T17:31:32.850Z,43.40
2018-12-31T17:34:38.131Z,34.63
2018-12-31T17:37:43.541Z,69.10
2018-12-31T17:40:48.827Z,84.80
2018-12-31T17:43:54.229Z,38.70
2018-12-31T17:46:59.550Z,36.30
2018-12-31T17:50:07.361Z,35.43
2018-12-31T17:53:12.641Z,39.80
2018-12-31T17:56:18.385Z,35.10
2018-12-31T17:59:26.222Z,40.60
2018-12-31T18:02:31.615Z,43.83
2018-12-31T18:05:36.942Z,35.67
2018-12-31T18:08:42.717Z,38.80
2018-12-31T18:11:47.994Z,49.13
2018-12-31T18:14:53.411Z,45.83
2018-12-31T18:17:58.693Z,42.40
2018-12-31T18:21:04.102Z,40.93
2018-12-31T18:24:09.473Z,39.93
2018-12-31T18:27:14.987Z,34.97
2018-12-31T18:30:20.271Z,43.20
2018-12-31T18:33:25.682Z,37.40
2018-12-31T18:36:30.957Z,38.53
2018-12-31T18:39:36.377Z,31.53
2018-12-31T18:42:41.645Z,33.43
2018-12-31T18:45:47.063Z,33.00
2018-12-31T18:48:52.344Z,38.67
2018-12-31T18:51:58.110Z,38.47
2018-12-31T18:55:03.847Z,41.73
2018-12-31T18:58:09.258Z,44.30
2018-12-31T19:01:14.581Z,49.83
2018-12-31T19:04:20.050Z,46.07
2018-12-31T19:07:25.335Z,48.23
2018-12-31T19:10:30.741Z,43.10
2018-12-31T19:13:36.031Z,46.13
2018-12-31T19:16:41.542Z,46.13
2018-12-31T19:19:47.133Z,50.90
2018-12-31T19:22:52.632Z,51.73
2018-12-31T19:25:58.077Z,53.17
2018-12-31T19:29:03.486Z,51.20
2018-12-31T19:32:08.774Z,54.60
2018-12-31T19:35:14.217Z,50.83
2018-12-31T19:38:19.499Z,50.10
2018-12-31T19:41:25.313Z,57.27
2018-12-31T19:44:30.597Z,57.23
2018-12-31T19:47:36.001Z,55.40
2018-12-31T19:50:41.289Z,52.10
2018-12-31T19:53:46.691Z,52.73
2018-12-31T19:56:51.986Z,51.33
2018-12-31T19:59:57.381Z,51.87
2018-12-31T20:03:02.712Z,47.13
2018-12-31T20:06:08.180Z,43.17
2018-12-31T20:09:13.462Z,49.97
2018-12-31T20:12:18.862Z,42.40
2018-12-31T20:15:24.520Z,46.53
2018-12-31T20:18:29.963Z,50.93
2018-12-31T20:21:35.241Z,50.77
2018-12-31T20:24:40.609Z,49.57
2018-12-31T20:27:45.967Z,53.13
2018-12-31T20:30:51.443Z,52.40
2018-12-31T20:33:56.762Z,49.33
2018-12-31T20:37:02.436Z,50.27
2018-12-31T20:40:08.164Z,48.03
2018-12-31T20:43:13.647Z,50.37
2018-12-31T20:46:18.924Z,54.50
2018-12-31T20:49:24.690Z,49.30
2018-12-31T20:52:30.062Z,52.90
2018-12-31T20:55:35.537Z,59.03
2018-12-31T20:58:41.201Z,57.13
2018-12-31T21:01:46.630Z,69.93
2018-12-31T21:04:51.962Z,53.60
2018-12-31T21:07:57.422Z,59.87
2018-12-31T21:11:02.703Z,71.17
2018-12-31T21:14:08.109Z,60.03
2018-12-31T21:17:13.391Z,61.00
2018-12-31T21:20:18.759Z,62.40
2018-12-31T21:23:24.124Z,62.93
2018-12-31T21:26:29.593Z,60.60
2018-12-31T21:29:34.976Z,63.97
2018-12-31T21:32:40.586Z,58.73
2018-12-31T21:35:45.869Z,59.97
2018-12-31T21:38:51.536Z,58.53
2018-12-31T21:41:56.810Z,60.70
2018-12-31T21:45:02.274Z,60.87
2018-12-31T21:48:07.561Z,60.80
2018-12-31T21:51:12.963Z,57.70
2018-12-31T21:54:18.243Z,58.47
2018-12-31T21:57:23.650Z,59.50
2018-12-31T22:00:28.933Z,59.43
2018-12-31T22:03:34.366Z,60.97
2018-12-31T22:06:40.123Z,56.57
2018-12-31T22:09:45.545Z,55.07
2018-12-31T22:12:50.827Z,56.00
2018-12-31T22:15:56.229Z,51.60
2018-12-31T22:19:01.520Z,50.87
2018-12-31T22:22:06.922Z,51.23
2018-12-31T22:25:12.248Z,52.83
2018-12-31T22:28:17.710Z,46.30
2018-12-31T22:31:23.806Z,53.97
2018-12-31T22:34:29.231Z,63.70
2018-12-31T22:37:34.509Z,57.63
2018-12-31T22:40:40.213Z,54.20
2018-12-31T22:43:45.495Z,51.93
2018-12-31T22:46:50.904Z,41.90
2018-12-31T22:49:56.190Z,39.37
2018-12-31T22:53:01.600Z,40.83
2018-12-31T22:56:06.877Z,40.50
2018-12-31T22:59:12.254Z,41.83
2018-12-31T23:02:17.542Z,46.00
2018-12-31T23:05:23.105Z,48.10
2018-12-31T23:08:28.387Z,53.27
2018-12-31T23:11:33.768Z,44.23
2018-12-31T23:14:39.051Z,43.13
2018-12-31T23:17:44.462Z,47.10
2018-12-31T23:20:49.738Z,49.50
2018-12-31T23:23:55.146Z,38.30
2018-12-31T23:27:00.803Z,39.50
2018-12-31T23:30:10.011Z,40.40
2018-12-31T23:33:16.429Z,39.47
2018-12-31T23:36:21.844Z,38.00
2018-12-31T23:39:27.497Z,37.23
2018-12-31T23:42:33.051Z,42.00
2018-12-31T23:45:38.328Z,39.57
2018-12-31T23:48:43.837Z,39.73
2018-12-31T23:51:49.122Z,34.27
2018-12-31T23:54:54.530Z,38.53
2018-12-31T23:57:59.805Z,38.20
